Valdez, AK

2:27 PM AKDT on July 25, 2016 (GMT -0800)
Valdez | | Change Station

Elev 121 ft 61.13 °N, 146.25 °W | Updated 11 minutes ago

Overcast
Overcast
54 °F
Feels Like 54 °F
N
4
Wind Variable Wind from WSW

Today
High -- | Low -- °F
--% Chance of Precip.
Yesterday
High -- | Low -- °F
Precip. -- in
Pressure 29.92 in
Visibility 5.0 miles
Clouds Few 100 ft
Mostly Cloudy 1500 ft
Overcast 3500 ft
Dew Point 48 °F
Humidity 82%
Rainfall 0.54 in
Snow Depth Not available.
5:02 AM 10:39 PM
Waning Gibbous, 62% visible
METAR PAVD 252216Z 24003KT 5SM FEW001 BKN015 OVC035 12/09 A2992 RMK AO1 2147Z WEA: -RA BR TWR WND 00000KT
Pressure 29.92 in
Visibility 5.0 miles
Clouds Few 100 ft
Mostly Cloudy 1500 ft
Overcast 3500 ft
Dew Point 48 °F
Humidity 82%
Rainfall 0.54 in
Snow Depth Not available.
5:02 AM 10:39 PM
Waning Gibbous, 62% visible
METAR PAVD 252216Z 24003KT 5SM FEW001 BKN015 OVC035 12/09 A2992 RMK AO1 2147Z WEA: -RA BR TWR WND 00000KT

10-Day Weather Forecast

Almanac

Astronomy

Jul. 25, 2016 Rise Set
Actual Time
Civil Twilight
Nautical Twilight
Astronomical Twilight
Moon
Length of Visible Light
Length of Day
Tomorrow will be .
, % of the Moon is Illuminated

Today's Extremes

State Highs State Lows

Community

WunderPhotos

Upload Photos

1,927,429 photos uploaded!

WunderBlog® & News

Nearby

Air Quality

  Air Quality AQ Index Pollutant
Not available.

Snow Depth

Station Depth Elevation

Earthquake Activity

City Distance Mag. Time & Date
Minimum magnitude displayed is 2.5.

Coastal Water Temperatures

Place Temperature

Stations

Nearby Weather Stations

Station Location Temp. Windchill Dew Point Humidity Wind Precip. Elev Updated Type
                   

Watches & Warnings

There are currently no watches in effect.